Time;durP1;ratioP1;P1;durP2;ratioP2;P2;SDS_P1;SDS_P2;PMS_P1;PMS_P2;Temp;Humidity;BMP_temperature;BMP_pressure;BME280_temperature;BME280_humidity;BME280_pressure;Samples;Min_cycle;Max_cycle;Signal;HPM_P1;HPM_P2
2023/06/09 00:01:49;;;;;;;18.53;6.73;;;11.60;99.90;;;;;;4804901;29;20172;-68
2023/06/09 00:04:15;;;;;;;22.38;6.60;;;11.50;99.90;;;;;;4801611;29;20525;-68
2023/06/09 00:06:41;;;;;;;19.37;6.80;;;11.60;99.90;;;;;;4798254;29;20096;-68
2023/06/09 00:09:07;;;;;;;19.07;7.17;;;11.60;99.90;;;;;;4798436;29;20137;-68
2023/06/09 00:11:35;;;;;;;21.00;7.20;;;11.50;99.90;;;;;;4801946;29;20254;-68
2023/06/09 00:14:02;;;;;;;21.83;7.37;;;11.60;99.90;;;;;;4802945;29;20142;-68
2023/06/09 00:16:28;;;;;;;19.80;7.03;;;11.50;99.90;;;;;;4810340;29;20308;-68
2023/06/09 00:18:57;;;;;;;20.80;7.32;;;11.60;99.90;;;;;;4808740;29;20042;-68
2023/06/09 00:21:25;;;;;;;18.92;7.40;;;11.50;99.90;;;;;;4806919;29;20076;-68
2023/06/09 00:23:55;;;;;;;21.63;7.18;;;11.50;99.90;;;;;;4803811;29;20054;-68
2023/06/09 00:26:21;;;;;;;20.08;8.30;;;11.50;99.90;;;;;;4802480;29;20504;-68
2023/06/09 00:28:47;;;;;;;20.80;7.00;;;11.50;99.90;;;;;;4805078;29;20046;-68
2023/06/09 00:31:13;;;;;;;17.83;6.60;;;11.50;99.90;;;;;;4810428;29;20045;-68
2023/06/09 00:33:39;;;;;;;19.70;7.43;;;11.50;99.90;;;;;;4808372;29;20073;-68
2023/06/09 00:36:05;;;;;;;23.83;7.20;;;11.50;99.90;;;;;;4808028;29;20058;-68
2023/06/09 00:38:31;;;;;;;14.18;6.55;;;11.50;99.90;;;;;;4805945;29;20046;-68
2023/06/09 00:40:56;;;;;;;19.60;6.47;;;11.50;99.90;;;;;;4806891;29;20046;-68
2023/06/09 00:43:22;;;;;;;25.60;7.17;;;11.50;99.90;;;;;;4805994;29;20107;-68
2023/06/09 00:45:48;;;;;;;22.20;6.87;;;11.50;99.90;;;;;;4824369;29;20125;-68
2023/06/09 00:48:14;;;;;;;19.83;7.50;;;11.50;99.90;;;;;;4805153;29;20047;-68
2023/06/09 00:50:40;;;;;;;22.40;7.50;;;11.50;99.90;;;;;;4806988;29;20547;-68
2023/06/09 00:53:09;;;;;;;19.52;6.57;;;11.50;99.90;;;;;;4794230;29;20447;-68
2023/06/09 00:55:38;;;;;;;16.38;6.80;;;11.50;99.90;;;;;;4804077;29;20068;-68
2023/06/09 00:58:03;;;;;;;21.27;8.38;;;11.50;99.90;;;;;;4789327;29;20493;-68
2023/06/09 01:00:29;;;;;;;17.23;6.47;;;11.50;99.90;;;;;;4804835;29;20057;-69
2023/06/09 01:03:00;;;;;;;23.83;6.53;;;11.50;99.90;;;;;;4803405;29;20049;-68
2023/06/09 01:05:32;;;;;;;20.98;7.40;;;11.60;99.90;;;;;;4821301;29;20146;-69
2023/06/09 01:08:15;;;;;;;19.25;7.57;;;11.50;99.90;;;;;;4809040;29;20053;-68
2023/06/09 01:10:43;;;;;;;24.10;7.65;;;11.50;99.90;;;;;;4805881;29;20042;-68
2023/06/09 01:13:18;;;;;;;18.42;6.70;;;11.50;99.90;;;;;;4818811;29;20047;-68
2023/06/09 01:15:49;;;;;;;20.38;6.95;;;11.50;99.90;;;;;;4809031;29;20058;-68
2023/06/09 01:18:17;;;;;;;21.67;7.43;;;11.60;99.90;;;;;;4813383;29;20407;-68
2023/06/09 01:21:06;;;;;;;19.60;7.57;;;11.70;99.90;;;;;;4807908;29;20613;-68
2023/06/09 01:24:09;;;;;;;19.70;6.78;;;11.70;99.90;;;;;;4806101;29;20055;-68
2023/06/09 01:26:38;;;;;;;18.08;6.88;;;11.80;99.90;;;;;;4806524;29;20046;-68
2023/06/09 01:29:05;;;;;;;19.38;6.80;;;11.80;99.90;;;;;;4805103;29;20503;-68
2023/06/09 01:31:32;;;;;;;16.33;6.40;;;11.90;99.90;;;;;;4807157;29;20053;-69
2023/06/09 01:34:00;;;;;;;16.65;5.97;;;11.90;99.90;;;;;;4805503;29;20252;-69
2023/06/09 01:36:27;;;;;;;19.48;6.10;;;12.00;99.90;;;;;;4807238;29;20445;-69
2023/06/09 01:38:53;;;;;;;18.30;6.53;;;12.00;99.90;;;;;;4804829;29;20125;-69
2023/06/09 01:41:18;;;;;;;22.27;6.77;;;12.00;99.90;;;;;;4806731;29;20117;-69
2023/06/09 01:43:44;;;;;;;20.63;6.93;;;12.00;99.90;;;;;;4804672;29;20556;-69
2023/06/09 01:46:10;;;;;;;16.77;5.73;;;12.00;99.90;;;;;;4806897;29;20306;-69
2023/06/09 01:48:48;;;;;;;16.57;5.90;;;12.00;99.90;;;;;;4810846;29;20042;-69
2023/06/09 01:51:23;;;;;;;19.05;5.60;;;12.00;99.90;;;;;;4789114;29;20106;-69
2023/06/09 01:53:56;;;;;;;23.05;5.68;;;12.00;99.90;;;;;;4811396;29;20050;-68
2023/06/09 01:56:28;;;;;;;13.65;5.63;;;12.00;99.90;;;;;;4806838;29;20149;-68
2023/06/09 01:58:56;;;;;;;19.85;5.85;;;11.90;99.90;;;;;;4805811;29;20518;-68
2023/06/09 02:01:23;;;;;;;14.30;6.25;;;11.90;99.90;;;;;;4804845;29;20065;-68
2023/06/09 02:03:52;;;;;;;16.10;5.70;;;11.90;99.90;;;;;;4804915;29;20403;-68
2023/06/09 02:06:20;;;;;;;15.03;5.57;;;11.80;99.90;;;;;;4805815;29;20840;-68
2023/06/09 02:08:47;;;;;;;18.37;6.53;;;11.80;99.90;;;;;;4803581;29;20296;-68
2023/06/09 02:11:13;;;;;;;19.07;6.07;;;11.80;99.90;;;;;;4804010;29;20298;-68
2023/06/09 02:13:38;;;;;;;19.77;6.20;;;11.80;99.90;;;;;;4805639;29;20311;-68
2023/06/09 02:16:04;;;;;;;18.07;5.97;;;11.80;99.90;;;;;;4803890;29;20522;-68
2023/06/09 02:18:32;;;;;;;19.27;6.63;;;11.80;99.90;;;;;;4805615;29;20050;-68
2023/06/09 02:20:58;;;;;;;15.93;5.75;;;11.90;99.90;;;;;;4804987;29;20050;-68
2023/06/09 02:23:24;;;;;;;17.27;6.22;;;11.80;99.90;;;;;;4807427;29;20507;-68
2023/06/09 02:25:50;;;;;;;19.77;6.80;;;11.80;99.90;;;;;;4808230;29;20042;-68
2023/06/09 02:28:16;;;;;;;17.83;6.90;;;11.90;99.90;;;;;;4806393;29;20315;-68
2023/06/09 02:30:43;;;;;;;19.77;6.80;;;11.80;99.90;;;;;;4803916;29;20295;-68
2023/06/09 02:33:10;;;;;;;22.92;6.47;;;11.80;99.90;;;;;;4806747;29;20299;-68
2023/06/09 02:35:36;;;;;;;21.90;6.60;;;11.80;99.90;;;;;;4803238;29;20357;-69
2023/06/09 02:38:05;;;;;;;20.08;7.43;;;11.80;99.90;;;;;;4810069;29;20053;-69
2023/06/09 02:40:32;;;;;;;14.75;6.57;;;11.80;99.90;;;;;;4808682;29;20088;-68
2023/06/09 02:42:58;;;;;;;22.33;7.22;;;11.80;99.90;;;;;;4804837;29;20130;-68
2023/06/09 02:45:24;;;;;;;26.10;7.57;;;11.80;99.90;;;;;;4793437;29;20598;-68
2023/06/09 02:47:50;;;;;;;20.67;7.17;;;11.80;99.90;;;;;;4806272;29;20311;-68
2023/06/09 02:50:17;;;;;;;22.65;7.55;;;11.70;99.90;;;;;;4788383;29;20369;-68
2023/06/09 02:52:44;;;;;;;23.63;7.37;;;11.80;99.90;;;;;;4791915;29;20543;-68
2023/06/09 02:55:11;;;;;;;25.67;6.97;;;11.80;99.90;;;;;;4807736;29;20940;-68
2023/06/09 02:57:37;;;;;;;21.58;7.72;;;11.80;99.90;;;;;;4806587;29;20042;-68
2023/06/09 03:00:04;;;;;;;20.87;7.07;;;11.70;99.90;;;;;;4809202;29;20432;-68
2023/06/09 03:02:30;;;;;;;20.83;7.50;;;11.70;99.90;;;;;;4804540;29;20044;-68
2023/06/09 03:04:56;;;;;;;21.60;6.93;;;11.70;99.90;;;;;;4811496;29;20046;-68
2023/06/09 03:07:22;;;;;;;19.92;7.63;;;11.70;99.90;;;;;;4803315;29;20119;-68
2023/06/09 03:09:48;;;;;;;21.97;8.40;;;11.70;99.90;;;;;;4811728;29;20343;-68
2023/06/09 03:12:14;;;;;;;22.17;7.97;;;11.70;99.90;;;;;;4803000;29;20042;-68
2023/06/09 03:14:40;;;;;;;21.50;8.37;;;11.70;99.90;;;;;;4805442;29;20076;-68
2023/06/09 03:17:05;;;;;;;22.50;8.80;;;11.70;99.90;;;;;;4802259;29;20431;-68
2023/06/09 03:19:31;;;;;;;24.27;8.80;;;11.70;99.90;;;;;;4805080;29;20091;-68
2023/06/09 03:21:57;;;;;;;21.33;8.73;;;11.70;99.90;;;;;;4810677;29;20395;-69
2023/06/09 03:24:26;;;;;;;21.90;9.63;;;11.70;99.90;;;;;;4821656;29;20046;-69
2023/06/09 03:26:52;;;;;;;23.95;9.00;;;11.70;99.90;;;;;;4803770;29;20050;-69
2023/06/09 03:29:19;;;;;;;21.53;8.17;;;11.70;99.90;;;;;;4809776;29;20097;-69
2023/06/09 03:31:45;;;;;;;21.00;9.45;;;11.70;99.90;;;;;;4806549;29;20458;-69
2023/06/09 03:34:11;;;;;;;18.97;9.27;;;11.70;99.90;;;;;;4794525;29;20046;-69
2023/06/09 03:36:37;;;;;;;26.70;9.37;;;11.80;99.90;;;;;;4808857;29;20050;-69
2023/06/09 03:39:03;;;;;;;24.60;9.60;;;11.70;99.90;;;;;;4809966;29;20303;-69
2023/06/09 03:41:29;;;;;;;25.13;8.90;;;11.70;99.90;;;;;;4805916;29;20125;-69
2023/06/09 03:43:55;;;;;;;20.87;9.13;;;11.70;99.90;;;;;;4806030;29;20460;-69
2023/06/09 03:46:21;;;;;;;22.13;9.23;;;11.70;99.90;;;;;;4808579;29;20150;-69
2023/06/09 03:48:47;;;;;;;22.50;8.48;;;11.80;99.90;;;;;;4805816;29;20088;-69
2023/06/09 03:51:12;;;;;;;25.03;10.10;;;11.80;99.90;;;;;;4806049;29;20089;-69
2023/06/09 03:53:38;;;;;;;18.27;8.80;;;11.80;99.90;;;;;;4805758;29;20050;-69
2023/06/09 03:56:04;;;;;;;20.83;9.37;;;11.80;99.90;;;;;;4797182;29;20403;-69
2023/06/09 03:58:30;;;;;;;24.17;8.73;;;11.80;99.90;;;;;;4806063;29;20045;-69
2023/06/09 04:00:56;;;;;;;21.37;9.03;;;11.90;99.90;;;;;;4806366;29;20480;-69
2023/06/09 04:03:22;;;;;;;19.20;8.40;;;11.90;99.90;;;;;;4805247;29;20042;-69
2023/06/09 04:05:49;;;;;;;24.48;9.02;;;11.90;99.90;;;;;;4806517;29;20467;-69
2023/06/09 04:08:15;;;;;;;25.58;8.57;;;12.00;99.90;;;;;;4807061;29;20107;-69
2023/06/09 04:10:41;;;;;;;25.83;8.63;;;12.00;99.90;;;;;;4806301;29;20042;-69
2023/06/09 04:13:11;;;;;;;18.93;8.00;;;12.00;99.90;;;;;;4805539;29;20427;-69
2023/06/09 04:15:37;;;;;;;21.63;8.48;;;12.10;99.90;;;;;;4805523;29;20319;-69
2023/06/09 04:18:03;;;;;;;20.00;8.70;;;12.10;99.90;;;;;;4805395;29;20096;-69
2023/06/09 04:20:29;;;;;;;21.23;8.43;;;12.20;99.90;;;;;;4805290;29;20042;-69
2023/06/09 04:22:55;;;;;;;21.85;8.98;;;12.20;99.90;;;;;;4811355;29;20403;-69
2023/06/09 04:25:27;;;;;;;23.67;8.57;;;12.20;99.90;;;;;;4808979;29;20527;-69
2023/06/09 04:27:54;;;;;;;23.40;8.47;;;12.30;99.90;;;;;;4805375;29;20784;-69
2023/06/09 04:30:29;;;;;;;23.97;8.97;;;12.30;99.90;;;;;;4805271;29;20324;-69
2023/06/09 04:33:00;;;;;;;22.00;9.00;;;12.40;99.90;;;;;;4808471;29;20299;-69
2023/06/09 04:35:26;;;;;;;21.47;8.37;;;12.50;99.90;;;;;;4805269;29;20291;-69
2023/06/09 04:37:52;;;;;;;19.73;8.77;;;12.80;99.90;;;;;;4811034;29;20376;-69
2023/06/09 04:40:29;;;;;;;27.93;8.77;;;13.30;99.90;;;;;;4805104;29;20291;-69
2023/06/09 04:42:59;;;;;;;18.47;7.60;;;13.60;99.90;;;;;;4805160;29;20038;-69
2023/06/09 04:45:28;;;;;;;21.30;7.60;;;13.80;99.90;;;;;;4805449;29;20729;-69
2023/06/09 04:47:55;;;;;;;21.67;9.10;;;14.00;99.90;;;;;;4805202;29;20855;-69
2023/06/09 04:50:21;;;;;;;20.77;8.33;;;14.20;99.90;;;;;;4805551;29;20301;-69
2023/06/09 04:52:50;;;;;;;19.33;8.13;;;14.50;99.20;;;;;;4805032;29;20806;-69
2023/06/09 04:55:16;;;;;;;18.93;7.90;;;14.80;97.80;;;;;;4804845;29;20368;-69
2023/06/09 04:57:43;;;;;;;20.47;8.50;;;15.10;96.40;;;;;;4804979;29;20311;-69
2023/06/09 05:00:16;;;;;;;18.70;7.83;;;15.30;93.50;;;;;;4804895;29;20743;-69
2023/06/09 05:02:44;;;;;;;16.77;7.07;;;15.50;92.30;;;;;;4804224;29;20882;-69
2023/06/09 05:05:11;;;;;;;21.50;8.50;;;15.70;91.40;;;;;;4789727;29;20327;-69
2023/06/09 05:07:39;;;;;;;19.77;7.93;;;15.80;91.20;;;;;;4800418;29;20311;-69
2023/06/09 05:10:08;;;;;;;20.43;7.77;;;16.00;90.40;;;;;;4807809;29;20391;-69
2023/06/09 05:12:34;;;;;;;18.90;7.87;;;16.30;89.00;;;;;;4803853;29;20287;-69
2023/06/09 05:15:00;;;;;;;23.77;7.50;;;16.50;88.50;;;;;;4804841;29;20646;-69
2023/06/09 05:17:26;;;;;;;18.67;7.80;;;16.80;88.10;;;;;;4806747;29;20307;-69
2023/06/09 05:19:52;;;;;;;16.57;7.13;;;17.10;86.10;;;;;;4806590;29;20042;-69
2023/06/09 05:22:18;;;;;;;18.60;7.50;;;17.30;84.20;;;;;;4812596;29;20298;-68
2023/06/09 05:24:43;;;;;;;19.03;7.37;;;17.40;83.90;;;;;;4801938;29;20038;-68
2023/06/09 05:27:10;;;;;;;16.00;7.57;;;17.40;83.20;;;;;;4805436;29;20053;-69
2023/06/09 05:29:37;;;;;;;14.90;6.80;;;17.40;83.00;;;;;;4804507;29;20047;-69
2023/06/09 05:32:03;;;;;;;20.53;7.60;;;17.50;83.50;;;;;;4803652;29;20386;-69
2023/06/09 05:34:30;;;;;;;16.93;7.63;;;17.70;81.90;;;;;;4819402;29;20300;-69
2023/06/09 05:36:56;;;;;;;19.10;7.50;;;17.70;81.50;;;;;;4807751;29;20342;-69
2023/06/09 05:39:22;;;;;;;17.43;7.40;;;17.90;82.00;;;;;;4789543;29;20649;-69
2023/06/09 05:41:48;;;;;;;17.70;7.00;;;18.00;79.30;;;;;;4806567;29;20295;-69
2023/06/09 05:44:14;;;;;;;17.10;7.10;;;18.00;80.10;;;;;;4803307;29;20046;-69
2023/06/09 05:46:40;;;;;;;19.17;8.10;;;18.20;79.80;;;;;;4804198;29;20593;-69
2023/06/09 05:49:06;;;;;;;19.93;7.93;;;18.30;78.20;;;;;;4788278;29;20107;-69
2023/06/09 05:51:36;;;;;;;18.30;8.27;;;18.20;78.70;;;;;;4810845;29;20061;-69
2023/06/09 05:54:02;;;;;;;14.40;7.93;;;18.10;79.00;;;;;;4806760;29;20322;-69
2023/06/09 05:56:28;;;;;;;20.03;8.47;;;17.90;80.80;;;;;;4790113;29;20311;-69
2023/06/09 05:59:03;;;;;;;19.90;8.47;;;18.00;81.40;;;;;;4801960;29;20401;-69
2023/06/09 06:01:30;;;;;;;19.40;7.70;;;18.30;79.50;;;;;;4811245;29;20073;-69
2023/06/09 06:03:56;;;;;;;19.00;8.37;;;18.50;79.40;;;;;;4804309;29;20344;-69
2023/06/09 06:06:22;;;;;;;18.87;8.00;;;18.70;78.00;;;;;;4805339;29;20370;-69
2023/06/09 06:08:48;;;;;;;17.63;7.60;;;18.90;77.70;;;;;;4807365;29;21105;-69
2023/06/09 06:11:14;;;;;;;19.63;7.63;;;19.20;76.60;;;;;;4801031;29;20400;-69
2023/06/09 06:13:39;;;;;;;17.30;7.63;;;19.40;75.50;;;;;;4804843;29;20534;-69
2023/06/09 06:16:05;;;;;;;19.60;6.90;;;19.50;74.80;;;;;;4808912;29;20061;-69
2023/06/09 06:18:31;;;;;;;14.73;6.47;;;19.50;74.40;;;;;;4802592;29;20107;-70
2023/06/09 06:20:56;;;;;;;14.23;6.27;;;19.60;73.90;;;;;;4805327;29;20136;-69
2023/06/09 06:23:22;;;;;;;18.23;6.53;;;19.60;74.20;;;;;;4808161;29;20042;-69
2023/06/09 06:25:48;;;;;;;15.63;6.23;;;19.60;74.40;;;;;;4808036;29;20199;-69
2023/06/09 06:28:14;;;;;;;14.40;5.70;;;19.70;72.50;;;;;;4804246;29;20053;-69
2023/06/09 06:30:40;;;;;;;15.63;5.97;;;19.80;72.60;;;;;;4806921;29;20038;-69
2023/06/09 06:33:06;;;;;;;17.37;5.63;;;19.80;73.40;;;;;;4803211;29;20295;-69
2023/06/09 06:35:32;;;;;;;15.70;6.20;;;20.00;73.30;;;;;;4806374;29;20042;-70
2023/06/09 06:37:58;;;;;;;11.57;5.77;;;20.00;73.00;;;;;;4803485;29;20341;-70
2023/06/09 06:40:25;;;;;;;17.63;6.40;;;20.10;73.00;;;;;;4803480;29;20062;-70
2023/06/09 06:42:51;;;;;;;11.57;5.50;;;20.20;73.00;;;;;;4805384;29;20126;-70
2023/06/09 06:45:17;;;;;;;16.07;6.37;;;20.30;72.20;;;;;;4804758;29;20308;-70
2023/06/09 06:47:43;;;;;;;13.53;5.47;;;20.20;72.40;;;;;;4796048;29;20385;-70
2023/06/09 06:50:09;;;;;;;14.87;6.17;;;20.30;73.00;;;;;;4815592;29;20318;-70
2023/06/09 06:52:35;;;;;;;13.83;5.90;;;20.20;71.80;;;;;;4802691;29;20314;-69
2023/06/09 06:55:01;;;;;;;14.10;5.30;;;20.00;72.40;;;;;;4805763;29;20431;-69
2023/06/09 06:57:27;;;;;;;13.40;6.30;;;19.90;73.40;;;;;;4802844;29;20121;-69
2023/06/09 06:59:53;;;;;;;13.47;6.07;;;19.80;73.20;;;;;;4802723;29;20703;-69
2023/06/09 07:02:18;;;;;;;14.07;6.23;;;19.70;73.30;;;;;;4801899;29;20118;-69
2023/06/09 07:04:44;;;;;;;11.57;5.57;;;19.50;74.30;;;;;;4802294;29;20046;-69
2023/06/09 07:07:10;;;;;;;14.40;5.80;;;19.30;75.60;;;;;;4805283;29;20105;-69
2023/06/09 07:09:37;;;;;;;17.07;6.57;;;19.30;76.50;;;;;;4802944;29;20054;-69
2023/06/09 07:12:03;;;;;;;12.17;5.97;;;19.20;76.60;;;;;;4802127;29;20046;-69
2023/06/09 07:14:30;;;;;;;16.20;6.63;;;19.10;77.20;;;;;;4805356;29;20049;-69
2023/06/09 07:16:55;;;;;;;14.20;6.20;;;19.00;77.60;;;;;;4800419;29;20532;-69
2023/06/09 07:19:21;;;;;;;15.23;6.23;;;18.90;77.60;;;;;;4803132;29;20138;-69
2023/06/09 07:21:47;;;;;;;16.10;6.40;;;18.80;78.30;;;;;;4805325;29;20042;-69
2023/06/09 07:24:12;;;;;;;16.57;7.23;;;18.80;79.60;;;;;;4787563;29;20502;-69
2023/06/09 07:26:38;;;;;;;15.63;6.43;;;18.80;79.70;;;;;;4802295;29;20571;-69
2023/06/09 07:29:04;;;;;;;17.60;7.13;;;18.90;79.70;;;;;;4801930;29;20077;-69
2023/06/09 07:31:30;;;;;;;12.93;6.20;;;18.90;79.10;;;;;;4802646;29;20360;-69
2023/06/09 07:33:56;;;;;;;12.60;6.43;;;18.90;79.80;;;;;;4800902;29;20155;-68
2023/06/09 07:36:22;;;;;;;16.20;6.80;;;19.00;79.10;;;;;;4808218;29;20860;-69
2023/06/09 07:38:47;;;;;;;18.50;6.93;;;19.10;78.30;;;;;;4812111;29;20037;-69
2023/06/09 07:41:14;;;;;;;15.87;6.80;;;19.10;77.90;;;;;;4801412;29;20046;-69
2023/06/09 07:43:40;;;;;;;11.80;6.17;;;19.10;78.60;;;;;;4787477;29;20110;-69
2023/06/09 07:46:07;;;;;;;16.00;6.13;;;19.30;78.00;;;;;;4800874;29;20307;-69
2023/06/09 07:48:32;;;;;;;15.57;7.00;;;19.30;77.30;;;;;;4811506;29;20137;-68
2023/06/09 07:50:58;;;;;;;16.30;6.17;;;19.40;77.80;;;;;;4786179;29;20455;-69
2023/06/09 07:53:24;;;;;;;16.17;7.07;;;19.50;77.00;;;;;;4800820;29;20039;-68
2023/06/09 07:55:50;;;;;;;21.17;6.80;;;19.60;77.60;;;;;;4797988;29;20103;-69
2023/06/09 07:58:15;;;;;;;15.80;6.80;;;19.70;77.30;;;;;;4798298;29;20515;-68
2023/06/09 08:00:41;;;;;;;17.20;5.40;;;19.80;76.50;;;;;;4797393;29;20041;-68
2023/06/09 08:03:07;;;;;;;16.40;6.50;;;19.90;76.30;;;;;;4803005;29;20496;-69
2023/06/09 08:05:33;;;;;;;12.23;5.63;;;20.00;74.90;;;;;;4802703;29;20035;-68
2023/06/09 08:08:00;;;;;;;14.10;6.23;;;20.00;75.60;;;;;;4784772;29;20081;-69
2023/06/09 08:10:26;;;;;;;12.90;6.30;;;20.00;74.30;;;;;;4800809;29;20113;-68
2023/06/09 08:12:52;;;;;;;15.93;6.13;;;20.10;73.50;;;;;;4805633;29;20504;-68
2023/06/09 08:15:18;;;;;;;12.30;5.90;;;20.10;74.60;;;;;;4803744;29;20046;-70
2023/06/09 08:17:44;;;;;;;17.77;6.03;;;20.10;74.10;;;;;;4803655;29;20042;-68
2023/06/09 08:20:10;;;;;;;16.90;5.70;;;20.30;74.20;;;;;;4788319;29;20045;-68
2023/06/09 08:22:36;;;;;;;13.37;5.73;;;20.40;74.20;;;;;;4790739;29;20140;-70
2023/06/09 08:25:02;;;;;;;11.63;5.60;;;20.50;73.90;;;;;;4802331;29;20058;-69
2023/06/09 08:27:28;;;;;;;15.27;6.00;;;20.60;72.80;;;;;;4801714;29;20088;-69
2023/06/09 08:29:54;;;;;;;14.70;6.07;;;20.70;72.50;;;;;;4790504;29;20042;-69
2023/06/09 08:32:20;;;;;;;19.87;6.93;;;20.80;71.80;;;;;;4804104;29;20050;-69
2023/06/09 08:34:45;;;;;;;15.00;5.77;;;20.90;71.00;;;;;;4806139;29;20045;-70
2023/06/09 08:37:12;;;;;;;14.13;5.57;;;21.00;71.80;;;;;;4806962;29;20556;-71
2023/06/09 08:39:38;;;;;;;11.17;5.40;;;21.10;70.50;;;;;;4816675;29;20061;-69
2023/06/09 08:42:10;;;;;;;12.17;5.60;;;21.20;68.20;;;;;;4800941;29;20085;-69
2023/06/09 08:44:42;;;;;;;15.10;5.80;;;21.20;68.70;;;;;;4805121;29;20056;-70
2023/06/09 08:47:11;;;;;;;12.87;6.00;;;21.30;69.70;;;;;;4804362;29;20058;-69
2023/06/09 08:49:38;;;;;;;9.77;4.97;;;21.40;69.40;;;;;;4790270;29;20048;-69
2023/06/09 08:52:05;;;;;;;12.33;5.13;;;21.50;68.90;;;;;;4800865;29;20054;-69
2023/06/09 08:54:31;;;;;;;12.87;6.13;;;21.60;68.90;;;;;;4791060;29;20503;-69
2023/06/09 08:56:58;;;;;;;14.53;6.07;;;21.80;67.80;;;;;;4804612;29;20054;-70
2023/06/09 08:59:25;;;;;;;12.53;5.50;;;21.90;67.90;;;;;;4801219;29;20269;-69
2023/06/09 09:01:54;;;;;;;11.10;5.73;;;22.00;68.20;;;;;;4819016;29;20080;-70
2023/06/09 09:04:20;;;;;;;12.57;5.13;;;22.00;67.00;;;;;;4806634;29;20070;-69
2023/06/09 09:06:45;;;;;;;15.90;6.33;;;22.10;68.00;;;;;;4805243;29;20054;-69
2023/06/09 09:09:11;;;;;;;13.00;6.77;;;22.20;67.00;;;;;;4800404;29;20053;-69
2023/06/09 09:11:37;;;;;;;13.17;5.93;;;22.30;66.20;;;;;;4804362;29;20104;-69
2023/06/09 09:14:10;;;;;;;14.93;6.00;;;22.30;65.90;;;;;;4806169;29;20165;-70
2023/06/09 09:16:36;;;;;;;10.93;5.40;;;22.40;65.50;;;;;;4807836;29;20102;-70
2023/06/09 09:19:03;;;;;;;13.03;5.70;;;22.40;65.60;;;;;;4802524;29;20046;-70
2023/06/09 09:21:29;;;;;;;13.10;5.70;;;22.50;65.50;;;;;;4803945;29;20121;-70
2023/06/09 09:24:06;;;;;;;11.67;6.10;;;22.60;66.10;;;;;;4805166;29;20038;-69
2023/06/09 09:26:33;;;;;;;11.90;5.53;;;22.70;66.10;;;;;;4817673;29;20077;-69
2023/06/09 09:29:09;;;;;;;13.87;5.37;;;22.90;66.40;;;;;;4812677;29;20053;-70
2023/06/09 09:31:37;;;;;;;13.53;6.10;;;23.10;66.10;;;;;;4801970;29;20077;-71
2023/06/09 09:34:03;;;;;;;13.73;6.33;;;23.30;62.20;;;;;;4808294;29;21424;-70
2023/06/09 09:36:29;;;;;;;13.73;6.03;;;23.30;63.40;;;;;;4810109;29;20130;-70
2023/06/09 09:39:05;;;;;;;10.50;5.90;;;23.30;63.50;;;;;;4815779;29;20123;-71
2023/06/09 09:41:31;;;;;;;10.03;5.73;;;23.40;63.50;;;;;;4805559;29;20122;-71
2023/06/09 09:43:58;;;;;;;18.33;6.23;;;23.40;63.50;;;;;;4800946;29;20158;-69
2023/06/09 09:46:25;;;;;;;12.50;5.63;;;23.50;64.10;;;;;;4805716;29;20042;-69
2023/06/09 09:48:51;;;;;;;14.43;5.90;;;23.60;62.70;;;;;;4794945;29;20041;-70
2023/06/09 09:51:20;;;;;;;17.30;5.87;;;23.70;61.60;;;;;;4803762;29;20534;-71
2023/06/09 09:53:46;;;;;;;13.27;5.40;;;23.70;63.10;;;;;;4800604;29;20092;-70
2023/06/09 09:56:16;;;;;;;12.80;6.00;;;23.70;62.80;;;;;;4803162;29;20054;-70
2023/06/09 09:58:43;;;;;;;11.13;6.10;;;23.80;62.90;;;;;;4793385;29;20054;-70
2023/06/09 10:01:11;;;;;;;11.23;5.60;;;24.00;62.90;;;;;;4801530;29;20050;-71
2023/06/09 10:03:42;;;;;;;13.07;5.73;;;24.20;61.50;;;;;;4805179;29;20046;-70
2023/06/09 10:06:12;;;;;;;15.80;5.70;;;24.30;60.60;;;;;;4797954;29;20050;-70
2023/06/09 10:08:41;;;;;;;11.37;5.57;;;24.40;61.30;;;;;;4812980;29;20476;-69
2023/06/09 10:11:07;;;;;;;9.60;5.77;;;24.40;61.30;;;;;;4799430;29;20584;-69
2023/06/09 10:13:33;;;;;;;11.57;5.50;;;24.60;61.70;;;;;;4802181;29;20085;-69
2023/06/09 10:16:00;;;;;;;15.30;5.77;;;24.70;61.30;;;;;;4803086;29;20058;-69
2023/06/09 10:18:26;;;;;;;13.43;5.63;;;24.90;57.00;;;;;;4801443;29;20103;-69
2023/06/09 10:20:55;;;;;;;11.73;4.73;;;24.90;57.10;;;;;;4803395;29;20039;-69
2023/06/09 10:23:22;;;;;;;12.00;5.33;;;25.00;58.10;;;;;;4807298;29;20500;-69
2023/06/09 10:25:51;;;;;;;12.53;5.73;;;25.10;59.00;;;;;;4803973;29;20050;-69
2023/06/09 10:28:19;;;;;;;10.97;6.17;;;25.30;55.60;;;;;;4801255;29;20057;-69
2023/06/09 10:30:48;;;;;;;11.10;5.27;;;25.30;55.80;;;;;;4803083;29;20546;-69
2023/06/09 10:33:18;;;;;;;10.97;4.87;;;25.40;54.90;;;;;;4806016;29;20472;-69
2023/06/09 10:35:47;;;;;;;13.90;5.27;;;25.40;55.80;;;;;;4803086;29;20042;-69
2023/06/09 10:38:31;;;;;;;11.07;5.10;;;25.40;55.90;;;;;;4799602;29;20065;-69
2023/06/09 10:41:36;;;;;;;14.20;5.40;;;25.60;56.20;;;;;;4819731;29;20110;-69
2023/06/09 10:44:38;;;;;;;11.38;5.18;;;25.80;55.10;;;;;;4764399;30;20075;-69
2023/06/09 10:47:04;;;;;;;10.57;5.50;;;25.90;54.30;;;;;;4741077;30;20059;-70
2023/06/09 10:49:35;;;;;;;11.13;5.97;;;26.00;53.90;;;;;;4772932;29;20074;-70
2023/06/09 10:52:05;;;;;;;9.43;4.83;;;26.00;53.50;;;;;;4805225;29;20090;-70
2023/06/09 10:54:32;;;;;;;16.83;5.93;;;26.00;53.90;;;;;;4803589;29;20578;-69
2023/06/09 10:57:00;;;;;;;11.80;5.30;;;26.00;54.10;;;;;;4808804;29;20497;-69
2023/06/09 10:59:26;;;;;;;11.20;5.43;;;26.00;53.90;;;;;;4806239;29;20034;-69
2023/06/09 11:04:43;;;;;;;13.33;5.30;;;26.30;53.90;;;;;;4803535;29;20046;-68
2023/06/09 11:07:20;;;;;;;9.90;4.53;;;26.40;53.20;;;;;;4808280;29;20058;-68
2023/06/09 11:09:49;;;;;;;10.47;5.33;;;26.50;53.00;;;;;;4802565;29;20082;-68
2023/06/09 11:12:28;;;;;;;11.50;5.47;;;26.50;53.50;;;;;;4813457;29;20053;-68
2023/06/09 11:14:56;;;;;;;10.80;5.47;;;26.60;54.20;;;;;;4797654;29;20109;-69
2023/06/09 11:17:36;;;;;;;11.70;5.30;;;26.70;52.80;;;;;;4790239;29;20058;-69
2023/06/09 11:20:10;;;;;;;10.83;5.20;;;26.80;52.10;;;;;;4794870;29;20057;-69
2023/06/09 11:22:42;;;;;;;9.98;5.32;;;26.80;52.40;;;;;;4795921;29;20034;-69
2023/06/09 11:25:28;;;;;;;10.60;5.10;;;26.80;51.40;;;;;;4802057;29;20054;-70
2023/06/09 11:27:57;;;;;;;10.70;5.07;;;26.90;50.90;;;;;;4787460;29;20179;-70
2023/06/09 11:30:24;;;;;;;10.07;5.00;;;26.90;51.60;;;;;;4801489;29;20059;-70
2023/06/09 11:33:03;;;;;;;9.03;4.53;;;26.90;51.60;;;;;;4807373;29;20519;-70
2023/06/09 11:35:28;;;;;;;11.47;5.23;;;27.00;51.60;;;;;;4809079;29;20038;-69
2023/06/09 11:37:59;;;;;;;10.67;5.73;;;27.10;51.90;;;;;;4803478;29;20457;-69
2023/06/09 11:40:27;;;;;;;10.80;5.73;;;27.20;51.50;;;;;;4779798;29;20045;-70
2023/06/09 11:42:54;;;;;;;14.40;5.43;;;27.30;50.00;;;;;;4804617;29;20050;-68
2023/06/09 11:45:23;;;;;;;11.50;6.07;;;27.20;49.20;;;;;;4817277;29;20046;-69
2023/06/09 11:47:49;;;;;;;10.03;5.17;;;27.20;49.40;;;;;;4800017;29;20082;-68
2023/06/09 11:50:16;;;;;;;12.03;5.70;;;27.20;51.30;;;;;;4797825;29;20070;-69
2023/06/09 11:52:45;;;;;;;9.07;5.10;;;27.30;51.40;;;;;;4799524;29;20507;-68
2023/06/09 11:55:17;;;;;;;12.23;6.00;;;27.40;50.60;;;;;;4799273;29;20118;-69
2023/06/09 11:57:43;;;;;;;7.30;4.80;;;27.50;49.90;;;;;;4805037;29;20093;-68
2023/06/09 12:00:14;;;;;;;12.37;5.30;;;27.50;50.00;;;;;;4802139;29;20042;-68
2023/06/09 12:02:45;;;;;;;11.13;5.87;;;27.70;49.60;;;;;;4816750;29;20046;-68
2023/06/09 12:05:12;;;;;;;8.20;5.03;;;27.80;49.00;;;;;;4805943;29;20046;-68
2023/06/09 12:07:40;;;;;;;11.10;4.93;;;27.90;49.40;;;;;;4800728;29;21695;-68
2023/06/09 12:10:06;;;;;;;9.73;5.17;;;28.00;48.50;;;;;;4786816;29;20133;-68
2023/06/09 12:12:45;;;;;;;8.57;4.83;;;28.10;49.20;;;;;;4799937;29;20046;-68
2023/06/09 12:15:11;;;;;;;10.33;5.20;;;28.20;48.00;;;;;;4803362;29;20112;-69
2023/06/09 12:17:38;;;;;;;9.63;5.17;;;28.20;47.90;;;;;;4805514;29;20511;-69
2023/06/09 12:20:30;;;;;;;11.00;5.10;;;28.30;47.80;;;;;;4805257;29;20042;-69
2023/06/09 12:23:12;;;;;;;11.43;5.77;;;28.40;47.20;;;;;;4807690;29;20043;-69
2023/06/09 12:25:43;;;;;;;12.43;5.90;;;28.50;46.50;;;;;;4812938;29;20038;-70
2023/06/09 12:28:17;;;;;;;12.17;6.00;;;28.30;47.20;;;;;;4812353;29;20081;-69
2023/06/09 12:30:45;;;;;;;;;;;28.30;46.90;;;;;;4800463;29;20047;-70
2023/06/09 12:33:13;;;;;;;9.07;5.53;;;28.30;46.70;;;;;;4803321;29;19927;-69
2023/06/09 12:35:46;;;;;;;10.10;5.07;;;28.20;46.50;;;;;;4806161;29;20054;-69
2023/06/09 12:38:17;;;;;;;10.77;5.53;;;28.20;47.60;;;;;;4788536;29;20103;-70
2023/06/09 12:41:11;;;;;;;10.70;5.87;;;28.30;47.00;;;;;;4807310;29;20054;-70
2023/06/09 12:43:56;;;;;;;8.83;5.27;;;28.30;46.60;;;;;;4784589;29;20050;-69
2023/06/09 12:46:26;;;;;;;;;;;28.40;46.30;;;;;;4805431;29;20269;-70